sensor_id;sensor_type;location;lat;lon;timestamp;temperature;humidity
3846;DHT22;1938;50.812;7.738;2023-02-05T00:01:14;2.30;99.90
3846;DHT22;1938;50.812;7.738;2023-02-05T00:03:40;2.40;99.90
3846;DHT22;1938;50.812;7.738;2023-02-05T00:06:06;2.40;99.90
3846;DHT22;1938;50.812;7.738;2023-02-05T00:08:33;2.50;99.90
3846;DHT22;1938;50.812;7.738;2023-02-05T00:11:00;2.40;99.90
3846;DHT22;1938;50.812;7.738;2023-02-05T00:13:37;2.40;99.90
3846;DHT22;1938;50.812;7.738;2023-02-05T00:16:09;2.40;99.90
3846;DHT22;1938;50.812;7.738;2023-02-05T00:18:35;2.40;99.90
3846;DHT22;1938;50.812;7.738;2023-02-05T00:21:02;2.40;99.90
3846;DHT22;1938;50.812;7.738;2023-02-05T00:23:27;2.40;99.90
3846;DHT22;1938;50.812;7.738;2023-02-05T00:25:53;2.30;99.90
3846;DHT22;1938;50.812;7.738;2023-02-05T00:28:18;2.30;99.90
3846;DHT22;1938;50.812;7.738;2023-02-05T00:30:44;2.50;99.90
3846;DHT22;1938;50.812;7.738;2023-02-05T00:33:09;2.20;99.90
3846;DHT22;1938;50.812;7.738;2023-02-05T00:35:36;2.10;99.90
3846;DHT22;1938;50.812;7.738;2023-02-05T00:38:01;2.00;99.90
3846;DHT22;1938;50.812;7.738;2023-02-05T00:40:27;2.00;99.90
3846;DHT22;1938;50.812;7.738;2023-02-05T00:42:52;1.90;99.90
3846;DHT22;1938;50.812;7.738;2023-02-05T00:45:19;2.00;99.90
3846;DHT22;1938;50.812;7.738;2023-02-05T00:47:44;2.00;99.90
3846;DHT22;1938;50.812;7.738;2023-02-05T00:50:10;2.00;99.90
3846;DHT22;1938;50.812;7.738;2023-02-05T00:52:36;2.00;99.90
3846;DHT22;1938;50.812;7.738;2023-02-05T00:55:01;2.10;99.90
3846;DHT22;1938;50.812;7.738;2023-02-05T00:57:28;2.00;99.90
3846;DHT22;1938;50.812;7.738;2023-02-05T00:59:53;2.00;99.90
3846;DHT22;1938;50.812;7.738;2023-02-05T01:02:19;2.10;99.90
3846;DHT22;1938;50.812;7.738;2023-02-05T01:04:51;2.00;99.90
3846;DHT22;1938;50.812;7.738;2023-02-05T01:07:18;2.00;99.90
3846;DHT22;1938;50.812;7.738;2023-02-05T01:09:44;2.10;99.90
3846;DHT22;1938;50.812;7.738;2023-02-05T01:12:09;2.10;99.90
3846;DHT22;1938;50.812;7.738;2023-02-05T01:14:35;2.10;99.90
3846;DHT22;1938;50.812;7.738;2023-02-05T01:17:00;2.10;99.90
3846;DHT22;1938;50.812;7.738;2023-02-05T01:19:26;2.10;99.90
3846;DHT22;1938;50.812;7.738;2023-02-05T01:21:51;2.10;99.90
3846;DHT22;1938;50.812;7.738;2023-02-05T01:24:17;2.10;99.90
3846;DHT22;1938;50.812;7.738;2023-02-05T01:26:42;2.20;99.90
3846;DHT22;1938;50.812;7.738;2023-02-05T01:29:08;2.10;99.90
3846;DHT22;1938;50.812;7.738;2023-02-05T01:31:34;2.20;99.90
3846;DHT22;1938;50.812;7.738;2023-02-05T01:33:59;2.10;99.90
3846;DHT22;1938;50.812;7.738;2023-02-05T01:36:26;2.10;99.90
3846;DHT22;1938;50.812;7.738;2023-02-05T01:38:51;2.20;99.90
3846;DHT22;1938;50.812;7.738;2023-02-05T01:41:19;2.30;99.90
3846;DHT22;1938;50.812;7.738;2023-02-05T01:44:10;2.30;99.90
3846;DHT22;1938;50.812;7.738;2023-02-05T01:46:39;2.30;99.90
3846;DHT22;1938;50.812;7.738;2023-02-05T01:49:11;2.20;99.90
3846;DHT22;1938;50.812;7.738;2023-02-05T01:51:38;2.30;99.90
3846;DHT22;1938;50.812;7.738;2023-02-05T01:54:05;2.40;99.90
3846;DHT22;1938;50.812;7.738;2023-02-05T01:56:39;2.40;99.90
3846;DHT22;1938;50.812;7.738;2023-02-05T01:59:16;2.40;99.90
3846;DHT22;1938;50.812;7.738;2023-02-05T02:01:43;2.30;99.90
3846;DHT22;1938;50.812;7.738;2023-02-05T02:04:10;2.30;99.90
3846;DHT22;1938;50.812;7.738;2023-02-05T02:06:36;2.30;99.90
3846;DHT22;1938;50.812;7.738;2023-02-05T02:09:03;2.30;99.90
3846;DHT22;1938;50.812;7.738;2023-02-05T02:11:33;2.40;99.90
3846;DHT22;1938;50.812;7.738;2023-02-05T02:14:00;2.50;99.90
3846;DHT22;1938;50.812;7.738;2023-02-05T02:16:28;2.50;99.90
3846;DHT22;1938;50.812;7.738;2023-02-05T02:18:54;2.40;99.90
3846;DHT22;1938;50.812;7.738;2023-02-05T02:21:26;2.30;99.90
3846;DHT22;1938;50.812;7.738;2023-02-05T02:24:12;2.50;99.90
3846;DHT22;1938;50.812;7.738;2023-02-05T02:30:10;2.30;99.90
3846;DHT22;1938;50.812;7.738;2023-02-05T02:32:42;2.40;99.90
3846;DHT22;1938;50.812;7.738;2023-02-05T02:35:35;2.40;99.90
3846;DHT22;1938;50.812;7.738;2023-02-05T02:38:27;2.50;99.90
3846;DHT22;1938;50.812;7.738;2023-02-05T02:41:07;2.40;99.90
3846;DHT22;1938;50.812;7.738;2023-02-05T02:43:55;2.50;99.90
3846;DHT22;1938;50.812;7.738;2023-02-05T02:46:30;2.50;99.90
3846;DHT22;1938;50.812;7.738;2023-02-05T02:49:04;2.50;99.90
3846;DHT22;1938;50.812;7.738;2023-02-05T02:51:31;2.70;99.90
3846;DHT22;1938;50.812;7.738;2023-02-05T02:53:59;2.40;99.90
3846;DHT22;1938;50.812;7.738;2023-02-05T02:56:29;2.30;99.90
3846;DHT22;1938;50.812;7.738;2023-02-05T02:59:01;2.30;99.90
3846;DHT22;1938;50.812;7.738;2023-02-05T03:01:29;2.30;99.90
3846;DHT22;1938;50.812;7.738;2023-02-05T03:04:05;2.30;99.90
3846;DHT22;1938;50.812;7.738;2023-02-05T03:06:32;2.40;99.90
3846;DHT22;1938;50.812;7.738;2023-02-05T03:09:02;2.30;99.90
3846;DHT22;1938;50.812;7.738;2023-02-05T03:11:29;2.30;99.90
3846;DHT22;1938;50.812;7.738;2023-02-05T03:13:55;2.30;99.90
3846;DHT22;1938;50.812;7.738;2023-02-05T03:16:22;2.10;99.90
3846;DHT22;1938;50.812;7.738;2023-02-05T03:18:49;2.20;99.90
3846;DHT22;1938;50.812;7.738;2023-02-05T03:21:21;2.20;99.90
3846;DHT22;1938;50.812;7.738;2023-02-05T03:23:49;2.20;99.90
3846;DHT22;1938;50.812;7.738;2023-02-05T03:26:32;2.30;99.90
3846;DHT22;1938;50.812;7.738;2023-02-05T03:29:04;2.40;99.90
3846;DHT22;1938;50.812;7.738;2023-02-05T03:31:55;2.40;99.90
3846;DHT22;1938;50.812;7.738;2023-02-05T03:34:42;2.30;99.90
3846;DHT22;1938;50.812;7.738;2023-02-05T03:46:05;2.60;99.90
3846;DHT22;1938;50.812;7.738;2023-02-05T03:57:07;2.50;99.90
3846;DHT22;1938;50.812;7.738;2023-02-05T03:59:35;2.40;99.90
3846;DHT22;1938;50.812;7.738;2023-02-05T04:02:01;2.40;99.90
3846;DHT22;1938;50.812;7.738;2023-02-05T04:04:30;2.40;99.90
3846;DHT22;1938;50.812;7.738;2023-02-05T04:06:56;2.40;99.90
3846;DHT22;1938;50.812;7.738;2023-02-05T04:09:21;2.60;99.90
3846;DHT22;1938;50.812;7.738;2023-02-05T04:11:47;2.40;99.90
3846;DHT22;1938;50.812;7.738;2023-02-05T04:14:13;2.20;99.90
3846;DHT22;1938;50.812;7.738;2023-02-05T04:16:39;2.10;99.90
3846;DHT22;1938;50.812;7.738;2023-02-05T04:19:04;1.90;99.90
3846;DHT22;1938;50.812;7.738;2023-02-05T04:21:31;1.80;99.90
3846;DHT22;1938;50.812;7.738;2023-02-05T04:23:57;1.70;99.90
3846;DHT22;1938;50.812;7.738;2023-02-05T04:26:23;1.70;99.90
3846;DHT22;1938;50.812;7.738;2023-02-05T04:28:49;1.70;99.90
3846;DHT22;1938;50.812;7.738;2023-02-05T04:31:14;1.70;99.90
3846;DHT22;1938;50.812;7.738;2023-02-05T04:33:40;2.10;99.90
3846;DHT22;1938;50.812;7.738;2023-02-05T04:36:06;2.10;99.90
3846;DHT22;1938;50.812;7.738;2023-02-05T04:38:32;2.00;99.90
3846;DHT22;1938;50.812;7.738;2023-02-05T04:40:59;2.00;99.90
3846;DHT22;1938;50.812;7.738;2023-02-05T04:43:25;1.90;99.90
3846;DHT22;1938;50.812;7.738;2023-02-05T04:45:51;2.00;99.90
3846;DHT22;1938;50.812;7.738;2023-02-05T04:48:17;2.00;99.90
3846;DHT22;1938;50.812;7.738;2023-02-05T04:50:43;1.90;99.90
3846;DHT22;1938;50.812;7.738;2023-02-05T04:53:09;1.80;99.90
3846;DHT22;1938;50.812;7.738;2023-02-05T04:55:34;1.80;99.90
3846;DHT22;1938;50.812;7.738;2023-02-05T04:58:00;1.70;99.90
3846;DHT22;1938;50.812;7.738;2023-02-05T05:00:26;1.70;99.90
3846;DHT22;1938;50.812;7.738;2023-02-05T05:02:52;1.70;99.90
3846;DHT22;1938;50.812;7.738;2023-02-05T05:05:18;1.70;99.90
3846;DHT22;1938;50.812;7.738;2023-02-05T05:07:43;1.60;99.90
3846;DHT22;1938;50.812;7.738;2023-02-05T05:10:10;1.50;99.90
3846;DHT22;1938;50.812;7.738;2023-02-05T05:12:36;1.60;99.90
3846;DHT22;1938;50.812;7.738;2023-02-05T05:15:03;1.60;99.90
3846;DHT22;1938;50.812;7.738;2023-02-05T05:17:30;1.80;99.90
3846;DHT22;1938;50.812;7.738;2023-02-05T05:19:57;1.80;99.90
3846;DHT22;1938;50.812;7.738;2023-02-05T05:22:22;1.80;99.90
3846;DHT22;1938;50.812;7.738;2023-02-05T05:24:48;1.80;99.90
3846;DHT22;1938;50.812;7.738;2023-02-05T05:27:13;1.90;99.90
3846;DHT22;1938;50.812;7.738;2023-02-05T05:29:39;1.90;99.90
3846;DHT22;1938;50.812;7.738;2023-02-05T05:32:05;2.00;99.90
3846;DHT22;1938;50.812;7.738;2023-02-05T05:34:30;2.00;99.90
3846;DHT22;1938;50.812;7.738;2023-02-05T05:36:57;2.00;99.90
3846;DHT22;1938;50.812;7.738;2023-02-05T05:39:22;2.00;99.90
3846;DHT22;1938;50.812;7.738;2023-02-05T05:42:09;2.00;99.90
3846;DHT22;1938;50.812;7.738;2023-02-05T05:44:54;2.10;99.90
3846;DHT22;1938;50.812;7.738;2023-02-05T05:47:20;2.10;99.90
3846;DHT22;1938;50.812;7.738;2023-02-05T05:49:46;2.10;99.90
3846;DHT22;1938;50.812;7.738;2023-02-05T05:52:12;2.00;99.90
3846;DHT22;1938;50.812;7.738;2023-02-05T05:54:37;2.00;99.90
3846;DHT22;1938;50.812;7.738;2023-02-05T05:57:03;2.00;99.90
3846;DHT22;1938;50.812;7.738;2023-02-05T05:59:29;2.00;99.90
3846;DHT22;1938;50.812;7.738;2023-02-05T06:01:55;2.00;99.90
3846;DHT22;1938;50.812;7.738;2023-02-05T06:04:21;1.90;99.90
3846;DHT22;1938;50.812;7.738;2023-02-05T06:06:47;2.00;99.90
3846;DHT22;1938;50.812;7.738;2023-02-05T06:09:13;2.00;99.90
3846;DHT22;1938;50.812;7.738;2023-02-05T06:11:38;2.00;99.90
3846;DHT22;1938;50.812;7.738;2023-02-05T06:14:04;2.00;99.90
3846;DHT22;1938;50.812;7.738;2023-02-05T06:16:30;2.00;99.90
3846;DHT22;1938;50.812;7.738;2023-02-05T06:18:56;2.00;99.90
3846;DHT22;1938;50.812;7.738;2023-02-05T06:21:22;2.10;99.90
3846;DHT22;1938;50.812;7.738;2023-02-05T06:23:47;2.20;99.90
3846;DHT22;1938;50.812;7.738;2023-02-05T06:26:13;2.20;99.90
3846;DHT22;1938;50.812;7.738;2023-02-05T06:28:39;2.30;99.90
3846;DHT22;1938;50.812;7.738;2023-02-05T06:31:05;2.30;99.90
3846;DHT22;1938;50.812;7.738;2023-02-05T06:33:31;2.20;99.90
3846;DHT22;1938;50.812;7.738;2023-02-05T06:35:56;2.20;99.90
3846;DHT22;1938;50.812;7.738;2023-02-05T06:38:23;2.30;99.90
3846;DHT22;1938;50.812;7.738;2023-02-05T06:40:48;2.30;99.90
3846;DHT22;1938;50.812;7.738;2023-02-05T06:43:14;2.30;99.90
3846;DHT22;1938;50.812;7.738;2023-02-05T06:45:40;2.40;99.90
3846;DHT22;1938;50.812;7.738;2023-02-05T06:48:06;2.30;99.90
3846;DHT22;1938;50.812;7.738;2023-02-05T06:50:32;2.30;99.90
3846;DHT22;1938;50.812;7.738;2023-02-05T06:52:57;2.40;99.90
3846;DHT22;1938;50.812;7.738;2023-02-05T06:55:24;2.50;99.90
3846;DHT22;1938;50.812;7.738;2023-02-05T06:57:49;2.70;99.90
3846;DHT22;1938;50.812;7.738;2023-02-05T07:00:15;2.90;99.90
3846;DHT22;1938;50.812;7.738;2023-02-05T07:02:41;3.10;99.90
3846;DHT22;1938;50.812;7.738;2023-02-05T07:05:07;3.20;99.90
3846;DHT22;1938;50.812;7.738;2023-02-05T07:07:33;3.40;99.90
3846;DHT22;1938;50.812;7.738;2023-02-05T07:09:59;3.50;99.90
3846;DHT22;1938;50.812;7.738;2023-02-05T07:12:25;3.60;99.90
3846;DHT22;1938;50.812;7.738;2023-02-05T07:14:51;3.70;99.90
3846;DHT22;1938;50.812;7.738;2023-02-05T07:17:16;3.70;99.90
3846;DHT22;1938;50.812;7.738;2023-02-05T07:19:42;3.70;99.90
3846;DHT22;1938;50.812;7.738;2023-02-05T07:22:07;3.70;99.90
3846;DHT22;1938;50.812;7.738;2023-02-05T07:24:36;3.70;99.90
3846;DHT22;1938;50.812;7.738;2023-02-05T07:27:01;3.70;99.90
3846;DHT22;1938;50.812;7.738;2023-02-05T07:29:27;3.70;99.90
3846;DHT22;1938;50.812;7.738;2023-02-05T07:31:52;3.80;99.90
3846;DHT22;1938;50.812;7.738;2023-02-05T07:34:19;3.80;99.90
3846;DHT22;1938;50.812;7.738;2023-02-05T07:36:44;3.80;99.90
3846;DHT22;1938;50.812;7.738;2023-02-05T07:39:10;3.80;99.90
3846;DHT22;1938;50.812;7.738;2023-02-05T07:41:35;3.80;99.90
3846;DHT22;1938;50.812;7.738;2023-02-05T07:44:01;3.90;99.90
3846;DHT22;1938;50.812;7.738;2023-02-05T07:46:27;3.90;99.90
3846;DHT22;1938;50.812;7.738;2023-02-05T07:48:53;3.90;99.90
3846;DHT22;1938;50.812;7.738;2023-02-05T07:51:22;3.90;99.90
3846;DHT22;1938;50.812;7.738;2023-02-05T07:53:49;3.90;99.90
3846;DHT22;1938;50.812;7.738;2023-02-05T07:56:15;3.90;99.90
3846;DHT22;1938;50.812;7.738;2023-02-05T07:58:41;3.90;99.90
3846;DHT22;1938;50.812;7.738;2023-02-05T08:01:07;3.90;99.90
3846;DHT22;1938;50.812;7.738;2023-02-05T08:03:33;3.90;99.90
3846;DHT22;1938;50.812;7.738;2023-02-05T08:06:05;4.00;99.90
3846;DHT22;1938;50.812;7.738;2023-02-05T08:08:31;4.00;99.90
3846;DHT22;1938;50.812;7.738;2023-02-05T08:10:59;3.30;99.90
3846;DHT22;1938;50.812;7.738;2023-02-05T08:13:25;2.90;99.90
3846;DHT22;1938;50.812;7.738;2023-02-05T08:15:52;2.70;99.90
3846;DHT22;1938;50.812;7.738;2023-02-05T08:18:17;2.70;99.90
3846;DHT22;1938;50.812;7.738;2023-02-05T08:20:43;2.60;99.90
3846;DHT22;1938;50.812;7.738;2023-02-05T08:23:09;2.60;99.90
3846;DHT22;1938;50.812;7.738;2023-02-05T08:25:37;2.60;99.90
3846;DHT22;1938;50.812;7.738;2023-02-05T08:28:03;2.60;99.90
3846;DHT22;1938;50.812;7.738;2023-02-05T08:30:29;2.70;99.90
3846;DHT22;1938;50.812;7.738;2023-02-05T08:32:54;2.70;99.90
3846;DHT22;1938;50.812;7.738;2023-02-05T08:35:21;2.70;99.90
3846;DHT22;1938;50.812;7.738;2023-02-05T08:37:46;2.80;99.90
3846;DHT22;1938;50.812;7.738;2023-02-05T08:40:12;2.80;99.90
3846;DHT22;1938;50.812;7.738;2023-02-05T08:42:38;2.90;99.90
3846;DHT22;1938;50.812;7.738;2023-02-05T08:45:03;2.90;99.90
3846;DHT22;1938;50.812;7.738;2023-02-05T08:47:37;2.90;99.90
3846;DHT22;1938;50.812;7.738;2023-02-05T08:50:03;3.00;99.90
3846;DHT22;1938;50.812;7.738;2023-02-05T08:52:29;3.00;99.90
3846;DHT22;1938;50.812;7.738;2023-02-05T08:54:55;3.00;99.90
3846;DHT22;1938;50.812;7.738;2023-02-05T08:57:21;3.00;99.90
3846;DHT22;1938;50.812;7.738;2023-02-05T08:59:46;3.00;99.90
3846;DHT22;1938;50.812;7.738;2023-02-05T09:02:15;3.00;99.90
3846;DHT22;1938;50.812;7.738;2023-02-05T09:04:41;3.00;99.90
3846;DHT22;1938;50.812;7.738;2023-02-05T09:07:07;3.10;99.90
3846;DHT22;1938;50.812;7.738;2023-02-05T09:09:32;3.00;99.90
3846;DHT22;1938;50.812;7.738;2023-02-05T09:11:59;3.10;99.90
3846;DHT22;1938;50.812;7.738;2023-02-05T09:14:25;3.10;99.90
3846;DHT22;1938;50.812;7.738;2023-02-05T09:16:51;3.10;99.90
3846;DHT22;1938;50.812;7.738;2023-02-05T09:19:16;3.10;99.90
3846;DHT22;1938;50.812;7.738;2023-02-05T09:21:42;3.20;99.90
3846;DHT22;1938;50.812;7.738;2023-02-05T09:24:07;3.10;99.90
3846;DHT22;1938;50.812;7.738;2023-02-05T09:26:34;3.20;99.90
3846;DHT22;1938;50.812;7.738;2023-02-05T09:29:00;3.20;99.90
3846;DHT22;1938;50.812;7.738;2023-02-05T09:31:25;3.30;99.90
3846;DHT22;1938;50.812;7.738;2023-02-05T09:33:51;3.30;99.90
3846;DHT22;1938;50.812;7.738;2023-02-05T09:36:20;3.40;99.90
3846;DHT22;1938;50.812;7.738;2023-02-05T09:38:46;3.30;99.90
3846;DHT22;1938;50.812;7.738;2023-02-05T09:51:35;3.60;99.90
3846;DHT22;1938;50.812;7.738;2023-02-05T09:56:52;3.60;99.90
3846;DHT22;1938;50.812;7.738;2023-02-05T09:59:21;3.70;99.90
3846;DHT22;1938;50.812;7.738;2023-02-05T10:02:02;3.60;99.90
3846;DHT22;1938;50.812;7.738;2023-02-05T10:04:41;3.60;99.90
3846;DHT22;1938;50.812;7.738;2023-02-05T10:07:16;3.70;99.90
3846;DHT22;1938;50.812;7.738;2023-02-05T10:15:55;3.80;99.90
3846;DHT22;1938;50.812;7.738;2023-02-05T10:24:31;4.00;99.90
3846;DHT22;1938;50.812;7.738;2023-02-05T10:29:40;4.50;99.90
3846;DHT22;1938;50.812;7.738;2023-02-05T10:32:17;4.70;99.90
3846;DHT22;1938;50.812;7.738;2023-02-05T10:34:57;4.90;99.90
3846;DHT22;1938;50.812;7.738;2023-02-05T10:37:45;5.00;99.90
3846;DHT22;1938;50.812;7.738;2023-02-05T10:40:19;5.10;99.90
3846;DHT22;1938;50.812;7.738;2023-02-05T10:43:23;5.10;99.90
3846;DHT22;1938;50.812;7.738;2023-02-05T10:45:51;5.20;99.90
3846;DHT22;1938;50.812;7.738;2023-02-05T10:51:15;5.50;99.90
3846;DHT22;1938;50.812;7.738;2023-02-05T10:53:41;5.50;99.90
3846;DHT22;1938;50.812;7.738;2023-02-05T10:56:07;5.60;99.90
3846;DHT22;1938;50.812;7.738;2023-02-05T11:01:06;5.50;99.90
3846;DHT22;1938;50.812;7.738;2023-02-05T11:03:33;5.40;99.90
3846;DHT22;1938;50.812;7.738;2023-02-05T11:06:01;5.40;99.90
3846;DHT22;1938;50.812;7.738;2023-02-05T11:10:59;5.40;99.90
3846;DHT22;1938;50.812;7.738;2023-02-05T11:13:26;5.50;99.90
3846;DHT22;1938;50.812;7.738;2023-02-05T11:16:03;5.40;99.90
3846;DHT22;1938;50.812;7.738;2023-02-05T11:18:35;5.40;99.90
3846;DHT22;1938;50.812;7.738;2023-02-05T11:21:04;5.40;99.90
3846;DHT22;1938;50.812;7.738;2023-02-05T11:23:30;5.40;99.90
3846;DHT22;1938;50.812;7.738;2023-02-05T11:25:59;5.60;99.90
3846;DHT22;1938;50.812;7.738;2023-02-05T11:28:28;5.70;99.90
3846;DHT22;1938;50.812;7.738;2023-02-05T11:30:55;5.80;99.90
3846;DHT22;1938;50.812;7.738;2023-02-05T11:36:07;6.00;99.90
3846;DHT22;1938;50.812;7.738;2023-02-05T11:38:56;6.00;99.90
3846;DHT22;1938;50.812;7.738;2023-02-05T11:43:57;5.40;99.90
3846;DHT22;1938;50.812;7.738;2023-02-05T11:46:25;5.20;99.90
3846;DHT22;1938;50.812;7.738;2023-02-05T11:51:43;5.10;99.90
3846;DHT22;1938;50.812;7.738;2023-02-05T11:54:23;5.10;99.90
3846;DHT22;1938;50.812;7.738;2023-02-05T11:57:26;5.20;99.90
3846;DHT22;1938;50.812;7.738;2023-02-05T12:07:24;5.40;99.90
3846;DHT22;1938;50.812;7.738;2023-02-05T12:09:51;5.50;99.90
3846;DHT22;1938;50.812;7.738;2023-02-05T12:12:36;5.40;99.90
3846;DHT22;1938;50.812;7.738;2023-02-05T12:15:21;5.40;99.90
3846;DHT22;1938;50.812;7.738;2023-02-05T12:20:42;5.30;99.90
3846;DHT22;1938;50.812;7.738;2023-02-05T12:23:24;5.30;99.90
3846;DHT22;1938;50.812;7.738;2023-02-05T12:34:08;5.30;99.90
3846;DHT22;1938;50.812;7.738;2023-02-05T12:36:45;5.30;99.90
3846;DHT22;1938;50.812;7.738;2023-02-05T12:39:24;5.30;99.90
3846;DHT22;1938;50.812;7.738;2023-02-05T12:42:18;5.20;99.90
3846;DHT22;1938;50.812;7.738;2023-02-05T12:53:49;5.10;99.90
3846;DHT22;1938;50.812;7.738;2023-02-05T12:56:48;5.10;99.90
3846;DHT22;1938;50.812;7.738;2023-02-05T13:01:52;5.10;99.90
3846;DHT22;1938;50.812;7.738;2023-02-05T13:04:36;5.10;99.90
3846;DHT22;1938;50.812;7.738;2023-02-05T13:07:29;5.20;99.90
3846;DHT22;1938;50.812;7.738;2023-02-05T13:10:06;5.10;99.90
3846;DHT22;1938;50.812;7.738;2023-02-05T13:12:40;5.00;99.90
3846;DHT22;1938;50.812;7.738;2023-02-05T13:15:15;4.80;99.90
3846;DHT22;1938;50.812;7.738;2023-02-05T13:17:51;4.90;99.90
3846;DHT22;1938;50.812;7.738;2023-02-05T13:20:44;4.90;99.90
3846;DHT22;1938;50.812;7.738;2023-02-05T13:23:28;4.80;99.90
3846;DHT22;1938;50.812;7.738;2023-02-05T13:26:14;4.80;99.90
3846;DHT22;1938;50.812;7.738;2023-02-05T13:29:09;4.80;99.90
3846;DHT22;1938;50.812;7.738;2023-02-05T13:31:43;4.80;99.90
3846;DHT22;1938;50.812;7.738;2023-02-05T13:34:14;4.80;99.90
3846;DHT22;1938;50.812;7.738;2023-02-05T13:37:08;4.80;99.90
3846;DHT22;1938;50.812;7.738;2023-02-05T13:40:00;4.80;99.90
3846;DHT22;1938;50.812;7.738;2023-02-05T13:45:41;4.90;99.90
3846;DHT22;1938;50.812;7.738;2023-02-05T13:58:52;5.10;99.90
3846;DHT22;1938;50.812;7.738;2023-02-05T14:01:26;5.20;99.90
3846;DHT22;1938;50.812;7.738;2023-02-05T14:04:01;5.20;99.90
3846;DHT22;1938;50.812;7.738;2023-02-05T14:06:34;5.30;99.90
3846;DHT22;1938;50.812;7.738;2023-02-05T14:09:22;5.50;99.90
3846;DHT22;1938;50.812;7.738;2023-02-05T14:11:56;5.50;99.90
3846;DHT22;1938;50.812;7.738;2023-02-05T14:14:40;5.60;99.90
3846;DHT22;1938;50.812;7.738;2023-02-05T14:19:56;5.40;99.90
3846;DHT22;1938;50.812;7.738;2023-02-05T14:22:56;5.40;99.90
3846;DHT22;1938;50.812;7.738;2023-02-05T14:30:48;5.30;99.90
3846;DHT22;1938;50.812;7.738;2023-02-05T14:33:40;5.30;99.90
3846;DHT22;1938;50.812;7.738;2023-02-05T14:39:01;5.30;99.90
3846;DHT22;1938;50.812;7.738;2023-02-05T14:44:04;5.20;99.90
3846;DHT22;1938;50.812;7.738;2023-02-05T14:46:35;5.10;99.90
3846;DHT22;1938;50.812;7.738;2023-02-05T14:49:04;5.10;99.90
3846;DHT22;1938;50.812;7.738;2023-02-05T14:51:39;5.00;99.90
3846;DHT22;1938;50.812;7.738;2023-02-05T14:54:14;5.00;99.90
3846;DHT22;1938;50.812;7.738;2023-02-05T14:59:52;4.80;99.90
3846;DHT22;1938;50.812;7.738;2023-02-05T15:08:19;4.90;99.90
3846;DHT22;1938;50.812;7.738;2023-02-05T15:13:19;5.00;99.90
3846;DHT22;1938;50.812;7.738;2023-02-05T15:18:56;4.90;99.90
3846;DHT22;1938;50.812;7.738;2023-02-05T15:21:41;4.80;99.90
3846;DHT22;1938;50.812;7.738;2023-02-05T15:24:23;4.70;99.90
3846;DHT22;1938;50.812;7.738;2023-02-05T15:27:05;4.70;99.90
3846;DHT22;1938;50.812;7.738;2023-02-05T15:29:39;4.70;99.90
3846;DHT22;1938;50.812;7.738;2023-02-05T15:32:44;4.60;99.90
3846;DHT22;1938;50.812;7.738;2023-02-05T15:35:13;4.60;99.90
3846;DHT22;1938;50.812;7.738;2023-02-05T15:37:55;4.50;99.90
3846;DHT22;1938;50.812;7.738;2023-02-05T15:40:28;4.60;99.90
3846;DHT22;1938;50.812;7.738;2023-02-05T15:42:59;4.50;99.90
3846;DHT22;1938;50.812;7.738;2023-02-05T15:45:31;4.40;99.90
3846;DHT22;1938;50.812;7.738;2023-02-05T15:48:11;4.40;99.90
3846;DHT22;1938;50.812;7.738;2023-02-05T15:51:03;4.40;99.90
3846;DHT22;1938;50.812;7.738;2023-02-05T15:53:53;4.40;99.90
3846;DHT22;1938;50.812;7.738;2023-02-05T16:01:36;4.30;99.90
3846;DHT22;1938;50.812;7.738;2023-02-05T16:06:47;4.30;99.90
3846;DHT22;1938;50.812;7.738;2023-02-05T16:09:17;4.30;99.90
3846;DHT22;1938;50.812;7.738;2023-02-05T16:11:43;4.30;99.90
3846;DHT22;1938;50.812;7.738;2023-02-05T16:14:13;4.30;99.90
3846;DHT22;1938;50.812;7.738;2023-02-05T16:16:45;4.30;99.90
3846;DHT22;1938;50.812;7.738;2023-02-05T16:19:23;4.30;99.90
3846;DHT22;1938;50.812;7.738;2023-02-05T16:21:58;4.20;99.90
3846;DHT22;1938;50.812;7.738;2023-02-05T16:24:37;4.20;99.90
3846;DHT22;1938;50.812;7.738;2023-02-05T16:27:19;4.30;99.90
3846;DHT22;1938;50.812;7.738;2023-02-05T16:29:49;4.40;99.90
3846;DHT22;1938;50.812;7.738;2023-02-05T16:32:30;4.50;99.90
3846;DHT22;1938;50.812;7.738;2023-02-05T16:34:58;4.60;99.90
3846;DHT22;1938;50.812;7.738;2023-02-05T16:37:28;4.70;99.90
3846;DHT22;1938;50.812;7.738;2023-02-05T16:39:56;4.80;99.90
3846;DHT22;1938;50.812;7.738;2023-02-05T16:45:20;4.90;99.90
3846;DHT22;1938;50.812;7.738;2023-02-05T16:50:50;5.00;99.90
3846;DHT22;1938;50.812;7.738;2023-02-05T16:53:23;5.10;99.90
3846;DHT22;1938;50.812;7.738;2023-02-05T16:55:56;5.10;99.90
3846;DHT22;1938;50.812;7.738;2023-02-05T16:58:25;5.00;99.90
3846;DHT22;1938;50.812;7.738;2023-02-05T17:00:56;4.90;99.90
3846;DHT22;1938;50.812;7.738;2023-02-05T17:03:22;4.90;99.90
3846;DHT22;1938;50.812;7.738;2023-02-05T17:05:57;4.80;99.90
3846;DHT22;1938;50.812;7.738;2023-02-05T17:08:27;4.80;99.90
3846;DHT22;1938;50.812;7.738;2023-02-05T17:10:57;4.80;99.90
3846;DHT22;1938;50.812;7.738;2023-02-05T17:13:43;4.80;99.90
3846;DHT22;1938;50.812;7.738;2023-02-05T17:16:26;4.80;99.90
3846;DHT22;1938;50.812;7.738;2023-02-05T17:18:57;4.70;99.90
3846;DHT22;1938;50.812;7.738;2023-02-05T17:21:28;4.70;99.90
3846;DHT22;1938;50.812;7.738;2023-02-05T17:23:55;4.70;99.90
3846;DHT22;1938;50.812;7.738;2023-02-05T17:26:22;4.70;99.90
3846;DHT22;1938;50.812;7.738;2023-02-05T17:28:56;4.70;99.90
3846;DHT22;1938;50.812;7.738;2023-02-05T17:31:23;4.70;99.90
3846;DHT22;1938;50.812;7.738;2023-02-05T17:33:54;4.70;99.90
3846;DHT22;1938;50.812;7.738;2023-02-05T17:36:21;4.80;99.90
3846;DHT22;1938;50.812;7.738;2023-02-05T17:38:48;4.80;99.90
3846;DHT22;1938;50.812;7.738;2023-02-05T17:41:16;4.80;99.90
3846;DHT22;1938;50.812;7.738;2023-02-05T17:44:01;4.80;99.90
3846;DHT22;1938;50.812;7.738;2023-02-05T17:46:26;4.80;99.90
3846;DHT22;1938;50.812;7.738;2023-02-05T17:48:52;4.90;99.90
3846;DHT22;1938;50.812;7.738;2023-02-05T17:51:19;4.90;99.90
3846;DHT22;1938;50.812;7.738;2023-02-05T17:53:46;4.90;99.90
3846;DHT22;1938;50.812;7.738;2023-02-05T17:56:12;4.60;99.90
3846;DHT22;1938;50.812;7.738;2023-02-05T17:58:38;4.40;99.90
3846;DHT22;1938;50.812;7.738;2023-02-05T18:01:04;4.30;99.90
3846;DHT22;1938;50.812;7.738;2023-02-05T18:03:30;4.30;99.90
3846;DHT22;1938;50.812;7.738;2023-02-05T18:05:59;4.10;99.90
3846;DHT22;1938;50.812;7.738;2023-02-05T18:08:24;4.00;99.90
3846;DHT22;1938;50.812;7.738;2023-02-05T18:10:50;4.00;99.90
3846;DHT22;1938;50.812;7.738;2023-02-05T18:13:16;4.00;99.90
3846;DHT22;1938;50.812;7.738;2023-02-05T18:15:42;3.90;99.90
3846;DHT22;1938;50.812;7.738;2023-02-05T18:18:09;3.90;99.90
3846;DHT22;1938;50.812;7.738;2023-02-05T18:20:36;3.80;99.90
3846;DHT22;1938;50.812;7.738;2023-02-05T18:23:03;3.80;99.90
3846;DHT22;1938;50.812;7.738;2023-02-05T18:25:29;3.60;99.90
3846;DHT22;1938;50.812;7.738;2023-02-05T18:27:54;3.50;99.90
3846;DHT22;1938;50.812;7.738;2023-02-05T18:30:20;3.60;99.90
3846;DHT22;1938;50.812;7.738;2023-02-05T18:32:46;3.60;99.90
3846;DHT22;1938;50.812;7.738;2023-02-05T18:35:13;3.60;99.90
3846;DHT22;1938;50.812;7.738;2023-02-05T18:37:40;3.60;99.90
3846;DHT22;1938;50.812;7.738;2023-02-05T18:40:06;3.70;99.90
3846;DHT22;1938;50.812;7.738;2023-02-05T18:42:32;3.70;99.90
3846;DHT22;1938;50.812;7.738;2023-02-05T18:44:59;3.60;99.90
3846;DHT22;1938;50.812;7.738;2023-02-05T18:47:24;3.70;99.90
3846;DHT22;1938;50.812;7.738;2023-02-05T18:49:50;3.70;99.90
3846;DHT22;1938;50.812;7.738;2023-02-05T18:52:16;3.70;99.90
3846;DHT22;1938;50.812;7.738;2023-02-05T18:54:43;3.70;99.90
3846;DHT22;1938;50.812;7.738;2023-02-05T18:57:09;3.80;99.90
3846;DHT22;1938;50.812;7.738;2023-02-05T18:59:37;3.90;99.90
3846;DHT22;1938;50.812;7.738;2023-02-05T19:02:04;3.90;99.90
3846;DHT22;1938;50.812;7.738;2023-02-05T19:04:30;3.80;99.90
3846;DHT22;1938;50.812;7.738;2023-02-05T19:06:57;3.90;99.90